sensor_id;sensor_type;location;lat;lon;timestamp;P1;durP1;ratioP1;P2;durP2;ratioP2
31754;SDS011;18325;52.018;4.726;2022-12-18T00:00:05;35.70;;;11.83;;
31754;SDS011;18325;52.018;4.726;2022-12-18T00:02:32;37.27;;;13.00;;
31754;SDS011;18325;52.018;4.726;2022-12-18T00:04:59;29.70;;;9.90;;
31754;SDS011;18325;52.018;4.726;2022-12-18T00:07:26;33.20;;;12.67;;
31754;SDS011;18325;52.018;4.726;2022-12-18T00:09:52;36.40;;;13.57;;
31754;SDS011;18325;52.018;4.726;2022-12-18T00:12:19;29.10;;;9.93;;
31754;SDS011;18325;52.018;4.726;2022-12-18T00:14:47;31.77;;;12.23;;
31754;SDS011;18325;52.018;4.726;2022-12-18T00:17:13;26.13;;;12.23;;
31754;SDS011;18325;52.018;4.726;2022-12-18T00:19:40;27.27;;;12.07;;
31754;SDS011;18325;52.018;4.726;2022-12-18T00:22:07;32.07;;;10.03;;
31754;SDS011;18325;52.018;4.726;2022-12-18T00:24:33;32.87;;;12.20;;
31754;SDS011;18325;52.018;4.726;2022-12-18T00:27:00;21.23;;;8.80;;
31754;SDS011;18325;52.018;4.726;2022-12-18T00:29:29;26.20;;;11.90;;
31754;SDS011;18325;52.018;4.726;2022-12-18T00:31:57;26.30;;;8.57;;
31754;SDS011;18325;52.018;4.726;2022-12-18T00:34:23;36.53;;;14.00;;
31754;SDS011;18325;52.018;4.726;2022-12-18T00:36:50;26.83;;;11.27;;
31754;SDS011;18325;52.018;4.726;2022-12-18T00:39:17;25.07;;;9.73;;
31754;SDS011;18325;52.018;4.726;2022-12-18T00:41:43;23.13;;;10.00;;
31754;SDS011;18325;52.018;4.726;2022-12-18T00:44:27;28.63;;;9.93;;
31754;SDS011;18325;52.018;4.726;2022-12-18T00:46:54;35.57;;;11.77;;
31754;SDS011;18325;52.018;4.726;2022-12-18T00:49:28;29.73;;;11.03;;
31754;SDS011;18325;52.018;4.726;2022-12-18T00:51:55;20.53;;;9.43;;
31754;SDS011;18325;52.018;4.726;2022-12-18T00:54:22;24.27;;;10.70;;
31754;SDS011;18325;52.018;4.726;2022-12-18T00:56:48;26.40;;;9.30;;
31754;SDS011;18325;52.018;4.726;2022-12-18T00:59:15;24.83;;;9.90;;
31754;SDS011;18325;52.018;4.726;2022-12-18T01:01:42;24.03;;;9.20;;
31754;SDS011;18325;52.018;4.726;2022-12-18T01:04:09;28.07;;;10.17;;
31754;SDS011;18325;52.018;4.726;2022-12-18T01:06:38;23.63;;;9.63;;
31754;SDS011;18325;52.018;4.726;2022-12-18T01:09:04;26.30;;;9.97;;
31754;SDS011;18325;52.018;4.726;2022-12-18T01:11:31;17.40;;;8.57;;
31754;SDS011;18325;52.018;4.726;2022-12-18T01:14:00;27.00;;;10.37;;
31754;SDS011;18325;52.018;4.726;2022-12-18T01:16:27;29.20;;;12.13;;
31754;SDS011;18325;52.018;4.726;2022-12-18T01:18:53;22.83;;;9.47;;
31754;SDS011;18325;52.018;4.726;2022-12-18T01:21:21;31.47;;;11.00;;
31754;SDS011;18325;52.018;4.726;2022-12-18T01:23:52;27.47;;;9.50;;
31754;SDS011;18325;52.018;4.726;2022-12-18T01:26:19;20.13;;;8.33;;
31754;SDS011;18325;52.018;4.726;2022-12-18T01:28:46;33.67;;;12.13;;
31754;SDS011;18325;52.018;4.726;2022-12-18T01:31:13;22.13;;;9.73;;
31754;SDS011;18325;52.018;4.726;2022-12-18T01:33:42;29.60;;;10.90;;
31754;SDS011;18325;52.018;4.726;2022-12-18T01:36:14;22.13;;;9.97;;
31754;SDS011;18325;52.018;4.726;2022-12-18T01:38:41;19.57;;;8.60;;
31754;SDS011;18325;52.018;4.726;2022-12-18T01:41:10;33.53;;;11.03;;
31754;SDS011;18325;52.018;4.726;2022-12-18T01:43:41;34.67;;;11.07;;
31754;SDS011;18325;52.018;4.726;2022-12-18T01:46:18;23.50;;;9.63;;
31754;SDS011;18325;52.018;4.726;2022-12-18T01:48:52;20.83;;;9.37;;
31754;SDS011;18325;52.018;4.726;2022-12-18T01:51:21;23.17;;;8.33;;
31754;SDS011;18325;52.018;4.726;2022-12-18T01:53:48;20.70;;;7.40;;
31754;SDS011;18325;52.018;4.726;2022-12-18T01:56:17;20.97;;;9.53;;
31754;SDS011;18325;52.018;4.726;2022-12-18T01:58:50;23.40;;;11.77;;
31754;SDS011;18325;52.018;4.726;2022-12-18T02:01:20;27.17;;;11.13;;
31754;SDS011;18325;52.018;4.726;2022-12-18T02:03:48;24.30;;;9.83;;
31754;SDS011;18325;52.018;4.726;2022-12-18T02:06:17;30.63;;;11.63;;
31754;SDS011;18325;52.018;4.726;2022-12-18T02:08:49;27.37;;;11.60;;
31754;SDS011;18325;52.018;4.726;2022-12-18T02:11:26;34.70;;;11.60;;
31754;SDS011;18325;52.018;4.726;2022-12-18T02:14:04;26.73;;;10.07;;
31754;SDS011;18325;52.018;4.726;2022-12-18T02:16:40;24.17;;;9.53;;
31754;SDS011;18325;52.018;4.726;2022-12-18T02:19:21;34.67;;;11.90;;
31754;SDS011;18325;52.018;4.726;2022-12-18T02:21:58;19.90;;;9.50;;
31754;SDS011;18325;52.018;4.726;2022-12-18T02:24:34;23.27;;;9.37;;
31754;SDS011;18325;52.018;4.726;2022-12-18T02:27:05;24.13;;;10.63;;
31754;SDS011;18325;52.018;4.726;2022-12-18T02:29:34;24.33;;;8.80;;
31754;SDS011;18325;52.018;4.726;2022-12-18T02:32:04;24.07;;;11.00;;
31754;SDS011;18325;52.018;4.726;2022-12-18T02:34:32;26.33;;;10.57;;
31754;SDS011;18325;52.018;4.726;2022-12-18T02:37:02;31.43;;;11.43;;
31754;SDS011;18325;52.018;4.726;2022-12-18T02:39:31;24.87;;;10.67;;
31754;SDS011;18325;52.018;4.726;2022-12-18T02:41:58;20.37;;;8.67;;
31754;SDS011;18325;52.018;4.726;2022-12-18T02:44:28;21.87;;;9.27;;
31754;SDS011;18325;52.018;4.726;2022-12-18T02:46:55;26.37;;;10.23;;
31754;SDS011;18325;52.018;4.726;2022-12-18T02:49:25;33.70;;;10.97;;
31754;SDS011;18325;52.018;4.726;2022-12-18T02:52:00;32.13;;;10.70;;
31754;SDS011;18325;52.018;4.726;2022-12-18T02:54:33;19.03;;;9.13;;
31754;SDS011;18325;52.018;4.726;2022-12-18T02:57:13;22.73;;;7.50;;
31754;SDS011;18325;52.018;4.726;2022-12-18T02:59:46;17.37;;;7.80;;
31754;SDS011;18325;52.018;4.726;2022-12-18T03:02:21;17.00;;;7.10;;
31754;SDS011;18325;52.018;4.726;2022-12-18T03:05:09;24.00;;;8.57;;
31754;SDS011;18325;52.018;4.726;2022-12-18T03:07:39;24.53;;;8.47;;
31754;SDS011;18325;52.018;4.726;2022-12-18T03:10:09;23.10;;;9.27;;
31754;SDS011;18325;52.018;4.726;2022-12-18T03:12:40;17.43;;;7.83;;
31754;SDS011;18325;52.018;4.726;2022-12-18T03:15:12;13.20;;;6.13;;
31754;SDS011;18325;52.018;4.726;2022-12-18T03:17:42;20.17;;;7.23;;
31754;SDS011;18325;52.018;4.726;2022-12-18T03:20:13;22.27;;;9.23;;
31754;SDS011;18325;52.018;4.726;2022-12-18T03:22:41;19.43;;;7.40;;
31754;SDS011;18325;52.018;4.726;2022-12-18T03:25:09;21.70;;;8.87;;
31754;SDS011;18325;52.018;4.726;2022-12-18T03:27:38;28.43;;;9.93;;
31754;SDS011;18325;52.018;4.726;2022-12-18T03:30:09;15.43;;;7.13;;
31754;SDS011;18325;52.018;4.726;2022-12-18T03:32:41;15.67;;;8.10;;
31754;SDS011;18325;52.018;4.726;2022-12-18T03:35:09;25.03;;;8.23;;
31754;SDS011;18325;52.018;4.726;2022-12-18T03:37:37;18.17;;;7.93;;
31754;SDS011;18325;52.018;4.726;2022-12-18T03:40:05;16.00;;;7.27;;
31754;SDS011;18325;52.018;4.726;2022-12-18T03:42:32;19.30;;;9.53;;
31754;SDS011;18325;52.018;4.726;2022-12-18T03:45:06;16.43;;;7.33;;
31754;SDS011;18325;52.018;4.726;2022-12-18T03:47:38;22.63;;;9.33;;
31754;SDS011;18325;52.018;4.726;2022-12-18T03:50:10;22.03;;;8.20;;
31754;SDS011;18325;52.018;4.726;2022-12-18T03:52:48;22.00;;;9.47;;
31754;SDS011;18325;52.018;4.726;2022-12-18T03:55:17;25.60;;;11.07;;
31754;SDS011;18325;52.018;4.726;2022-12-18T03:57:44;23.20;;;10.10;;
31754;SDS011;18325;52.018;4.726;2022-12-18T04:00:21;26.20;;;10.87;;
31754;SDS011;18325;52.018;4.726;2022-12-18T04:02:51;25.93;;;9.30;;
31754;SDS011;18325;52.018;4.726;2022-12-18T04:05:19;26.90;;;8.53;;
31754;SDS011;18325;52.018;4.726;2022-12-18T04:07:47;24.47;;;8.17;;
31754;SDS011;18325;52.018;4.726;2022-12-18T04:10:14;27.00;;;11.93;;
31754;SDS011;18325;52.018;4.726;2022-12-18T04:12:42;29.07;;;11.40;;
31754;SDS011;18325;52.018;4.726;2022-12-18T04:15:09;23.53;;;9.77;;
31754;SDS011;18325;52.018;4.726;2022-12-18T04:17:36;26.07;;;9.23;;
31754;SDS011;18325;52.018;4.726;2022-12-18T04:20:05;20.03;;;8.40;;
31754;SDS011;18325;52.018;4.726;2022-12-18T04:22:32;34.03;;;11.80;;
31754;SDS011;18325;52.018;4.726;2022-12-18T04:24:59;29.17;;;9.93;;
31754;SDS011;18325;52.018;4.726;2022-12-18T04:27:25;27.90;;;10.27;;
31754;SDS011;18325;52.018;4.726;2022-12-18T04:29:52;21.17;;;9.53;;
31754;SDS011;18325;52.018;4.726;2022-12-18T04:32:18;26.33;;;11.17;;
31754;SDS011;18325;52.018;4.726;2022-12-18T04:34:45;27.77;;;11.03;;
31754;SDS011;18325;52.018;4.726;2022-12-18T04:37:12;24.33;;;10.33;;
31754;SDS011;18325;52.018;4.726;2022-12-18T04:39:39;23.60;;;9.17;;
31754;SDS011;18325;52.018;4.726;2022-12-18T04:42:06;27.37;;;10.40;;
31754;SDS011;18325;52.018;4.726;2022-12-18T04:44:36;21.40;;;9.27;;
31754;SDS011;18325;52.018;4.726;2022-12-18T04:47:03;20.10;;;9.97;;
31754;SDS011;18325;52.018;4.726;2022-12-18T04:49:29;19.97;;;7.73;;
31754;SDS011;18325;52.018;4.726;2022-12-18T04:51:56;20.47;;;7.67;;
31754;SDS011;18325;52.018;4.726;2022-12-18T04:54:24;23.93;;;8.63;;
31754;SDS011;18325;52.018;4.726;2022-12-18T04:57:00;30.03;;;10.23;;
31754;SDS011;18325;52.018;4.726;2022-12-18T04:59:27;24.73;;;10.93;;
31754;SDS011;18325;52.018;4.726;2022-12-18T05:01:54;25.37;;;11.20;;
31754;SDS011;18325;52.018;4.726;2022-12-18T05:04:42;23.00;;;9.27;;
31754;SDS011;18325;52.018;4.726;2022-12-18T05:07:34;16.93;;;6.73;;
31754;SDS011;18325;52.018;4.726;2022-12-18T05:10:02;17.60;;;8.17;;
31754;SDS011;18325;52.018;4.726;2022-12-18T05:12:41;15.53;;;7.77;;
31754;SDS011;18325;52.018;4.726;2022-12-18T05:15:22;23.20;;;9.40;;
31754;SDS011;18325;52.018;4.726;2022-12-18T05:17:48;19.73;;;9.13;;
31754;SDS011;18325;52.018;4.726;2022-12-18T05:20:17;13.63;;;7.17;;
31754;SDS011;18325;52.018;4.726;2022-12-18T05:22:44;16.60;;;8.83;;
31754;SDS011;18325;52.018;4.726;2022-12-18T05:25:12;20.10;;;7.87;;
31754;SDS011;18325;52.018;4.726;2022-12-18T05:27:39;23.27;;;9.27;;
31754;SDS011;18325;52.018;4.726;2022-12-18T05:30:06;19.07;;;8.27;;
31754;SDS011;18325;52.018;4.726;2022-12-18T05:33:00;20.77;;;8.97;;
31754;SDS011;18325;52.018;4.726;2022-12-18T05:35:26;22.63;;;9.27;;
31754;SDS011;18325;52.018;4.726;2022-12-18T05:37:59;25.20;;;7.97;;
31754;SDS011;18325;52.018;4.726;2022-12-18T05:40:29;16.20;;;7.90;;
31754;SDS011;18325;52.018;4.726;2022-12-18T05:42:56;17.23;;;7.93;;
31754;SDS011;18325;52.018;4.726;2022-12-18T05:45:22;24.70;;;8.27;;
31754;SDS011;18325;52.018;4.726;2022-12-18T05:47:49;20.87;;;8.40;;
31754;SDS011;18325;52.018;4.726;2022-12-18T05:50:16;21.30;;;6.70;;
31754;SDS011;18325;52.018;4.726;2022-12-18T05:52:43;20.87;;;6.77;;
31754;SDS011;18325;52.018;4.726;2022-12-18T05:55:09;12.73;;;6.13;;
31754;SDS011;18325;52.018;4.726;2022-12-18T05:57:42;19.17;;;6.97;;
31754;SDS011;18325;52.018;4.726;2022-12-18T06:00:18;13.50;;;6.23;;
31754;SDS011;18325;52.018;4.726;2022-12-18T06:02:46;14.57;;;6.40;;
31754;SDS011;18325;52.018;4.726;2022-12-18T06:05:12;17.87;;;7.53;;
31754;SDS011;18325;52.018;4.726;2022-12-18T06:07:39;16.70;;;6.90;;
31754;SDS011;18325;52.018;4.726;2022-12-18T06:10:09;16.20;;;7.17;;
31754;SDS011;18325;52.018;4.726;2022-12-18T06:12:41;9.47;;;5.73;;
31754;SDS011;18325;52.018;4.726;2022-12-18T06:15:08;16.83;;;7.17;;
31754;SDS011;18325;52.018;4.726;2022-12-18T06:17:35;13.93;;;7.13;;
31754;SDS011;18325;52.018;4.726;2022-12-18T06:20:01;11.83;;;6.30;;
31754;SDS011;18325;52.018;4.726;2022-12-18T06:22:30;17.33;;;8.20;;
31754;SDS011;18325;52.018;4.726;2022-12-18T06:24:59;24.30;;;6.60;;
31754;SDS011;18325;52.018;4.726;2022-12-18T06:27:26;12.10;;;7.30;;
31754;SDS011;18325;52.018;4.726;2022-12-18T06:29:54;13.23;;;7.53;;
31754;SDS011;18325;52.018;4.726;2022-12-18T06:32:21;11.40;;;6.17;;
31754;SDS011;18325;52.018;4.726;2022-12-18T06:34:47;18.60;;;6.80;;
31754;SDS011;18325;52.018;4.726;2022-12-18T06:37:14;14.27;;;6.30;;
31754;SDS011;18325;52.018;4.726;2022-12-18T06:39:40;14.17;;;5.23;;
31754;SDS011;18325;52.018;4.726;2022-12-18T06:42:13;7.63;;;5.43;;
31754;SDS011;18325;52.018;4.726;2022-12-18T06:44:40;11.37;;;5.43;;
31754;SDS011;18325;52.018;4.726;2022-12-18T06:47:16;16.60;;;7.87;;
31754;SDS011;18325;52.018;4.726;2022-12-18T06:49:43;9.43;;;5.97;;
31754;SDS011;18325;52.018;4.726;2022-12-18T06:52:09;14.20;;;6.20;;
31754;SDS011;18325;52.018;4.726;2022-12-18T06:54:36;15.57;;;6.87;;
31754;SDS011;18325;52.018;4.726;2022-12-18T06:57:03;13.67;;;5.87;;
31754;SDS011;18325;52.018;4.726;2022-12-18T06:59:38;9.93;;;5.23;;
31754;SDS011;18325;52.018;4.726;2022-12-18T07:02:05;10.37;;;5.63;;
31754;SDS011;18325;52.018;4.726;2022-12-18T07:04:33;17.37;;;6.57;;
31754;SDS011;18325;52.018;4.726;2022-12-18T07:07:05;11.03;;;5.47;;
31754;SDS011;18325;52.018;4.726;2022-12-18T07:09:53;10.27;;;4.60;;
31754;SDS011;18325;52.018;4.726;2022-12-18T07:12:20;12.10;;;6.47;;
31754;SDS011;18325;52.018;4.726;2022-12-18T07:14:46;12.93;;;5.70;;
31754;SDS011;18325;52.018;4.726;2022-12-18T07:17:13;12.83;;;7.43;;
31754;SDS011;18325;52.018;4.726;2022-12-18T07:19:41;12.20;;;5.77;;
31754;SDS011;18325;52.018;4.726;2022-12-18T07:22:07;12.30;;;6.20;;
31754;SDS011;18325;52.018;4.726;2022-12-18T07:24:37;17.87;;;5.77;;
31754;SDS011;18325;52.018;4.726;2022-12-18T07:27:04;14.17;;;7.23;;
31754;SDS011;18325;52.018;4.726;2022-12-18T07:29:30;13.47;;;6.63;;
31754;SDS011;18325;52.018;4.726;2022-12-18T07:31:57;11.93;;;7.03;;
31754;SDS011;18325;52.018;4.726;2022-12-18T07:34:39;12.10;;;6.03;;
31754;SDS011;18325;52.018;4.726;2022-12-18T07:37:09;8.40;;;4.73;;
31754;SDS011;18325;52.018;4.726;2022-12-18T07:39:36;12.37;;;7.23;;
31754;SDS011;18325;52.018;4.726;2022-12-18T07:42:03;12.30;;;5.80;;
31754;SDS011;18325;52.018;4.726;2022-12-18T07:44:55;17.07;;;5.80;;
31754;SDS011;18325;52.018;4.726;2022-12-18T07:47:22;13.10;;;6.77;;
31754;SDS011;18325;52.018;4.726;2022-12-18T07:49:52;10.87;;;6.77;;
31754;SDS011;18325;52.018;4.726;2022-12-18T07:52:19;11.43;;;7.07;;
31754;SDS011;18325;52.018;4.726;2022-12-18T07:54:45;8.13;;;4.70;;
31754;SDS011;18325;52.018;4.726;2022-12-18T07:57:16;9.00;;;5.60;;
31754;SDS011;18325;52.018;4.726;2022-12-18T07:59:43;10.83;;;5.13;;
31754;SDS011;18325;52.018;4.726;2022-12-18T08:02:09;16.23;;;6.87;;
31754;SDS011;18325;52.018;4.726;2022-12-18T08:04:36;11.57;;;5.40;;
31754;SDS011;18325;52.018;4.726;2022-12-18T08:07:04;16.47;;;6.67;;
31754;SDS011;18325;52.018;4.726;2022-12-18T08:09:30;9.27;;;4.83;;
31754;SDS011;18325;52.018;4.726;2022-12-18T08:11:57;8.60;;;5.60;;
31754;SDS011;18325;52.018;4.726;2022-12-18T08:14:24;12.17;;;6.20;;
31754;SDS011;18325;52.018;4.726;2022-12-18T08:16:50;11.93;;;5.43;;
31754;SDS011;18325;52.018;4.726;2022-12-18T08:19:17;17.73;;;5.73;;
31754;SDS011;18325;52.018;4.726;2022-12-18T08:21:44;9.50;;;4.47;;
31754;SDS011;18325;52.018;4.726;2022-12-18T08:24:12;12.63;;;5.90;;
31754;SDS011;18325;52.018;4.726;2022-12-18T08:26:39;13.47;;;5.60;;
31754;SDS011;18325;52.018;4.726;2022-12-18T08:29:05;12.70;;;5.33;;
31754;SDS011;18325;52.018;4.726;2022-12-18T08:31:32;12.97;;;6.23;;
31754;SDS011;18325;52.018;4.726;2022-12-18T08:33:59;8.40;;;4.33;;
31754;SDS011;18325;52.018;4.726;2022-12-18T08:36:25;13.13;;;6.17;;
31754;SDS011;18325;52.018;4.726;2022-12-18T08:38:54;9.20;;;5.90;;
31754;SDS011;18325;52.018;4.726;2022-12-18T08:41:22;15.20;;;6.97;;
31754;SDS011;18325;52.018;4.726;2022-12-18T08:43:49;9.33;;;6.07;;
31754;SDS011;18325;52.018;4.726;2022-12-18T08:46:35;13.07;;;7.33;;
31754;SDS011;18325;52.018;4.726;2022-12-18T08:49:04;12.43;;;6.43;;
31754;SDS011;18325;52.018;4.726;2022-12-18T08:51:31;8.13;;;6.13;;
31754;SDS011;18325;52.018;4.726;2022-12-18T08:53:58;20.37;;;6.17;;
31754;SDS011;18325;52.018;4.726;2022-12-18T08:56:36;15.30;;;6.90;;
31754;SDS011;18325;52.018;4.726;2022-12-18T08:59:10;13.13;;;5.40;;
31754;SDS011;18325;52.018;4.726;2022-12-18T09:01:39;9.87;;;4.80;;
31754;SDS011;18325;52.018;4.726;2022-12-18T09:04:15;12.83;;;6.57;;
31754;SDS011;18325;52.018;4.726;2022-12-18T09:06:41;18.20;;;8.03;;
31754;SDS011;18325;52.018;4.726;2022-12-18T09:09:10;13.30;;;6.10;;
31754;SDS011;18325;52.018;4.726;2022-12-18T09:11:42;11.17;;;5.40;;
31754;SDS011;18325;52.018;4.726;2022-12-18T09:14:12;18.77;;;6.10;;
31754;SDS011;18325;52.018;4.726;2022-12-18T09:16:39;9.53;;;5.67;;
31754;SDS011;18325;52.018;4.726;2022-12-18T09:19:05;8.00;;;5.57;;
31754;SDS011;18325;52.018;4.726;2022-12-18T09:21:40;11.33;;;6.67;;
31754;SDS011;18325;52.018;4.726;2022-12-18T09:24:08;11.57;;;6.67;;
31754;SDS011;18325;52.018;4.726;2022-12-18T09:26:38;17.23;;;9.70;;
31754;SDS011;18325;52.018;4.726;2022-12-18T09:29:09;10.77;;;5.37;;
31754;SDS011;18325;52.018;4.726;2022-12-18T09:31:36;9.87;;;5.40;;
31754;SDS011;18325;52.018;4.726;2022-12-18T09:34:07;7.60;;;4.37;;
31754;SDS011;18325;52.018;4.726;2022-12-18T09:36:35;16.53;;;6.30;;
31754;SDS011;18325;52.018;4.726;2022-12-18T09:39:02;9.60;;;5.07;;
31754;SDS011;18325;52.018;4.726;2022-12-18T09:41:33;11.43;;;7.07;;
31754;SDS011;18325;52.018;4.726;2022-12-18T09:44:12;16.07;;;6.60;;
31754;SDS011;18325;52.018;4.726;2022-12-18T09:46:44;12.37;;;6.37;;
31754;SDS011;18325;52.018;4.726;2022-12-18T09:49:13;11.97;;;5.43;;
31754;SDS011;18325;52.018;4.726;2022-12-18T09:51:45;11.40;;;5.70;;
31754;SDS011;18325;52.018;4.726;2022-12-18T09:54:30;10.90;;;6.10;;
31754;SDS011;18325;52.018;4.726;2022-12-18T09:56:59;9.50;;;5.90;;
31754;SDS011;18325;52.018;4.726;2022-12-18T10:02:24;14.67;;;6.30;;
31754;SDS011;18325;52.018;4.726;2022-12-18T10:04:55;10.53;;;5.03;;
31754;SDS011;18325;52.018;4.726;2022-12-18T10:07:51;8.90;;;5.50;;
31754;SDS011;18325;52.018;4.726;2022-12-18T10:10:27;13.43;;;6.43;;
31754;SDS011;18325;52.018;4.726;2022-12-18T10:13:01;17.30;;;7.07;;
31754;SDS011;18325;52.018;4.726;2022-12-18T10:15:42;14.73;;;5.60;;
31754;SDS011;18325;52.018;4.726;2022-12-18T10:18:26;8.40;;;4.90;;
31754;SDS011;18325;52.018;4.726;2022-12-18T10:21:00;10.20;;;6.17;;
31754;SDS011;18325;52.018;4.726;2022-12-18T10:23:43;8.63;;;5.17;;
31754;SDS011;18325;52.018;4.726;2022-12-18T10:26:13;12.73;;;6.27;;
31754;SDS011;18325;52.018;4.726;2022-12-18T10:28:40;11.67;;;5.40;;
31754;SDS011;18325;52.018;4.726;2022-12-18T10:31:10;12.27;;;6.87;;
31754;SDS011;18325;52.018;4.726;2022-12-18T10:33:41;12.73;;;5.03;;
31754;SDS011;18325;52.018;4.726;2022-12-18T10:36:07;13.70;;;6.07;;
31754;SDS011;18325;52.018;4.726;2022-12-18T10:38:35;15.60;;;6.13;;
31754;SDS011;18325;52.018;4.726;2022-12-18T10:41:02;11.47;;;5.90;;
31754;SDS011;18325;52.018;4.726;2022-12-18T10:43:31;14.77;;;6.73;;
31754;SDS011;18325;52.018;4.726;2022-12-18T10:46:00;11.33;;;5.97;;
31754;SDS011;18325;52.018;4.726;2022-12-18T10:48:30;12.27;;;5.97;;
31754;SDS011;18325;52.018;4.726;2022-12-18T10:50:57;14.83;;;6.50;;
31754;SDS011;18325;52.018;4.726;2022-12-18T10:53:24;22.30;;;9.23;;
31754;SDS011;18325;52.018;4.726;2022-12-18T10:55:52;15.47;;;6.37;;
31754;SDS011;18325;52.018;4.726;2022-12-18T10:58:25;11.03;;;5.73;;
31754;SDS011;18325;52.018;4.726;2022-12-18T11:01:04;10.93;;;6.60;;
31754;SDS011;18325;52.018;4.726;2022-12-18T11:03:35;10.97;;;6.17;;
31754;SDS011;18325;52.018;4.726;2022-12-18T11:06:05;12.77;;;6.10;;
31754;SDS011;18325;52.018;4.726;2022-12-18T11:08:33;11.53;;;5.87;;
31754;SDS011;18325;52.018;4.726;2022-12-18T11:11:01;11.40;;;5.33;;
31754;SDS011;18325;52.018;4.726;2022-12-18T11:13:28;11.37;;;5.67;;
31754;SDS011;18325;52.018;4.726;2022-12-18T11:15:56;9.70;;;5.70;;
31754;SDS011;18325;52.018;4.726;2022-12-18T11:18:25;12.33;;;6.30;;
31754;SDS011;18325;52.018;4.726;2022-12-18T11:20:55;13.23;;;5.87;;
31754;SDS011;18325;52.018;4.726;2022-12-18T11:23:23;9.77;;;5.00;;
31754;SDS011;18325;52.018;4.726;2022-12-18T11:25:51;17.43;;;7.37;;
31754;SDS011;18325;52.018;4.726;2022-12-18T11:28:26;19.10;;;6.90;;
31754;SDS011;18325;52.018;4.726;2022-12-18T11:33:46;14.07;;;7.07;;
31754;SDS011;18325;52.018;4.726;2022-12-18T11:36:16;11.63;;;6.20;;
31754;SDS011;18325;52.018;4.726;2022-12-18T11:38:43;10.90;;;5.60;;
31754;SDS011;18325;52.018;4.726;2022-12-18T11:41:13;18.23;;;7.67;;
31754;SDS011;18325;52.018;4.726;2022-12-18T11:43:45;10.17;;;5.93;;
31754;SDS011;18325;52.018;4.726;2022-12-18T11:46:17;12.80;;;6.07;;
31754;SDS011;18325;52.018;4.726;2022-12-18T11:48:49;25.73;;;6.43;;
31754;SDS011;18325;52.018;4.726;2022-12-18T11:51:22;14.10;;;6.97;;
31754;SDS011;18325;52.018;4.726;2022-12-18T11:53:52;8.90;;;5.00;;
31754;SDS011;18325;52.018;4.726;2022-12-18T11:56:26;15.00;;;5.63;;
31754;SDS011;18325;52.018;4.726;2022-12-18T11:59:00;12.93;;;6.63;;
31754;SDS011;18325;52.018;4.726;2022-12-18T12:01:36;7.93;;;4.63;;
31754;SDS011;18325;52.018;4.726;2022-12-18T12:04:16;16.00;;;5.63;;
31754;SDS011;18325;52.018;4.726;2022-12-18T12:07:23;13.37;;;7.50;;
31754;SDS011;18325;52.018;4.726;2022-12-18T12:09:57;10.57;;;5.37;;
31754;SDS011;18325;52.018;4.726;2022-12-18T12:12:33;9.33;;;5.80;;
31754;SDS011;18325;52.018;4.726;2022-12-18T12:15:32;13.87;;;7.03;;
31754;SDS011;18325;52.018;4.726;2022-12-18T12:18:07;11.63;;;5.60;;
31754;SDS011;18325;52.018;4.726;2022-12-18T12:21:00;16.73;;;6.13;;
31754;SDS011;18325;52.018;4.726;2022-12-18T12:23:36;12.60;;;5.20;;
31754;SDS011;18325;52.018;4.726;2022-12-18T12:26:06;6.07;;;4.20;;
31754;SDS011;18325;52.018;4.726;2022-12-18T12:28:46;11.23;;;5.67;;
31754;SDS011;18325;52.018;4.726;2022-12-18T12:34:10;10.53;;;5.80;;
31754;SDS011;18325;52.018;4.726;2022-12-18T12:36:45;11.87;;;5.70;;
31754;SDS011;18325;52.018;4.726;2022-12-18T12:39:21;12.73;;;6.67;;
31754;SDS011;18325;52.018;4.726;2022-12-18T12:41:54;13.13;;;5.53;;
31754;SDS011;18325;52.018;4.726;2022-12-18T12:44:39;11.80;;;5.80;;
31754;SDS011;18325;52.018;4.726;2022-12-18T12:47:15;10.70;;;5.73;;
31754;SDS011;18325;52.018;4.726;2022-12-18T12:49:43;8.13;;;5.63;;
31754;SDS011;18325;52.018;4.726;2022-12-18T12:52:14;17.90;;;6.07;;
31754;SDS011;18325;52.018;4.726;2022-12-18T12:54:43;15.47;;;7.10;;
31754;SDS011;18325;52.018;4.726;2022-12-18T12:57:11;9.33;;;6.30;;
31754;SDS011;18325;52.018;4.726;2022-12-18T12:59:42;11.47;;;5.63;;
31754;SDS011;18325;52.018;4.726;2022-12-18T13:02:14;9.87;;;6.30;;
31754;SDS011;18325;52.018;4.726;2022-12-18T13:04:45;7.17;;;4.63;;
31754;SDS011;18325;52.018;4.726;2022-12-18T13:07:17;16.90;;;7.30;;
31754;SDS011;18325;52.018;4.726;2022-12-18T13:13:00;11.07;;;6.67;;
31754;SDS011;18325;52.018;4.726;2022-12-18T13:15:30;15.50;;;7.87;;
31754;SDS011;18325;52.018;4.726;2022-12-18T13:18:13;12.10;;;5.53;;
31754;SDS011;18325;52.018;4.726;2022-12-18T13:20:42;14.00;;;7.30;;
31754;SDS011;18325;52.018;4.726;2022-12-18T13:23:26;10.63;;;5.83;;
31754;SDS011;18325;52.018;4.726;2022-12-18T13:25:59;14.73;;;5.03;;
31754;SDS011;18325;52.018;4.726;2022-12-18T13:28:56;17.23;;;7.40;;
31754;SDS011;18325;52.018;4.726;2022-12-18T13:34:29;13.87;;;6.27;;
31754;SDS011;18325;52.018;4.726;2022-12-18T13:36:57;14.00;;;6.80;;
31754;SDS011;18325;52.018;4.726;2022-12-18T13:40:02;14.00;;;6.77;;
31754;SDS011;18325;52.018;4.726;2022-12-18T13:42:43;13.30;;;6.67;;
31754;SDS011;18325;52.018;4.726;2022-12-18T13:48:19;8.80;;;5.03;;
31754;SDS011;18325;52.018;4.726;2022-12-18T13:50:57;18.40;;;7.67;;
31754;SDS011;18325;52.018;4.726;2022-12-18T13:53:27;10.67;;;6.40;;
31754;SDS011;18325;52.018;4.726;2022-12-18T13:55:55;13.87;;;7.03;;
31754;SDS011;18325;52.018;4.726;2022-12-18T13:58:24;18.77;;;7.87;;
31754;SDS011;18325;52.018;4.726;2022-12-18T14:00:50;31.03;;;6.67;;
31754;SDS011;18325;52.018;4.726;2022-12-18T14:03:18;18.53;;;7.13;;
31754;SDS011;18325;52.018;4.726;2022-12-18T14:05:51;15.47;;;8.07;;
31754;SDS011;18325;52.018;4.726;2022-12-18T14:08:19;16.93;;;6.97;;
31754;SDS011;18325;52.018;4.726;2022-12-18T14:10:47;23.93;;;11.07;;
31754;SDS011;18325;52.018;4.726;2022-12-18T14:13:15;14.77;;;7.17;;
31754;SDS011;18325;52.018;4.726;2022-12-18T14:15:47;12.87;;;7.10;;
31754;SDS011;18325;52.018;4.726;2022-12-18T14:18:16;17.07;;;8.87;;
31754;SDS011;18325;52.018;4.726;2022-12-18T14:20:47;14.83;;;7.83;;
31754;SDS011;18325;52.018;4.726;2022-12-18T14:23:25;14.17;;;7.17;;
31754;SDS011;18325;52.018;4.726;2022-12-18T14:25:53;11.93;;;6.43;;
31754;SDS011;18325;52.018;4.726;2022-12-18T14:28:20;16.70;;;7.53;;
31754;SDS011;18325;52.018;4.726;2022-12-18T14:31:02;14.70;;;8.37;;
31754;SDS011;18325;52.018;4.726;2022-12-18T14:33:28;12.47;;;6.70;;
31754;SDS011;18325;52.018;4.726;2022-12-18T14:35:56;14.63;;;6.30;;
31754;SDS011;18325;52.018;4.726;2022-12-18T14:38:28;9.87;;;6.27;;
31754;SDS011;18325;52.018;4.726;2022-12-18T14:40:59;15.77;;;7.07;;
31754;SDS011;18325;52.018;4.726;2022-12-18T14:43:27;14.73;;;6.93;;
31754;SDS011;18325;52.018;4.726;2022-12-18T14:45:54;14.27;;;6.93;;
31754;SDS011;18325;52.018;4.726;2022-12-18T14:48:24;12.70;;;5.73;;
31754;SDS011;18325;52.018;4.726;2022-12-18T14:51:01;15.87;;;7.10;;
31754;SDS011;18325;52.018;4.726;2022-12-18T14:53:32;16.20;;;6.67;;
31754;SDS011;18325;52.018;4.726;2022-12-18T14:56:00;20.20;;;7.43;;
31754;SDS011;18325;52.018;4.726;2022-12-18T14:58:27;13.97;;;7.97;;
31754;SDS011;18325;52.018;4.726;2022-12-18T15:00:54;12.80;;;6.27;;
31754;SDS011;18325;52.018;4.726;2022-12-18T15:03:22;13.37;;;7.60;;
31754;SDS011;18325;52.018;4.726;2022-12-18T15:05:49;12.43;;;6.17;;
31754;SDS011;18325;52.018;4.726;2022-12-18T15:08:29;10.27;;;6.23;;
31754;SDS011;18325;52.018;4.726;2022-12-18T15:13:51;10.40;;;6.47;;